sensor_id;sensor_type;location;lat;lon;timestamp;P1;durP1;ratioP1;P2;durP2;ratioP2
47239;SDS011;32978;53.586;10.052;2022-11-12T00:03:26;90.05;;;84.55;;
47239;SDS011;32978;53.586;10.052;2022-11-12T00:08:22;88.85;;;83.20;;
47239;SDS011;32978;53.586;10.052;2022-11-12T00:13:19;93.38;;;87.30;;
47239;SDS011;32978;53.586;10.052;2022-11-12T00:18:15;88.60;;;83.00;;
47239;SDS011;32978;53.586;10.052;2022-11-12T00:23:11;85.88;;;79.65;;
47239;SDS011;32978;53.586;10.052;2022-11-12T00:28:08;79.38;;;74.38;;
47239;SDS011;32978;53.586;10.052;2022-11-12T00:33:05;71.20;;;66.32;;
47239;SDS011;32978;53.586;10.052;2022-11-12T00:38:01;67.85;;;63.40;;
47239;SDS011;32978;53.586;10.052;2022-11-12T00:42:57;65.28;;;60.92;;
47239;SDS011;32978;53.586;10.052;2022-11-12T00:47:54;58.85;;;54.63;;
47239;SDS011;32978;53.586;10.052;2022-11-12T00:52:52;53.22;;;49.40;;
47239;SDS011;32978;53.586;10.052;2022-11-12T00:57:48;56.33;;;52.42;;
47239;SDS011;32978;53.586;10.052;2022-11-12T01:02:44;52.65;;;48.85;;
47239;SDS011;32978;53.586;10.052;2022-11-12T01:07:46;55.90;;;51.97;;
47239;SDS011;32978;53.586;10.052;2022-11-12T01:12:48;51.70;;;48.40;;
47239;SDS011;32978;53.586;10.052;2022-11-12T01:17:44;53.15;;;49.53;;
47239;SDS011;32978;53.586;10.052;2022-11-12T01:22:40;49.78;;;46.20;;
47239;SDS011;32978;53.586;10.052;2022-11-12T01:27:36;51.03;;;47.42;;
47239;SDS011;32978;53.586;10.052;2022-11-12T01:32:33;44.35;;;41.03;;
47239;SDS011;32978;53.586;10.052;2022-11-12T01:37:30;43.40;;;40.33;;
47239;SDS011;32978;53.586;10.052;2022-11-12T01:42:29;41.42;;;38.42;;
47239;SDS011;32978;53.586;10.052;2022-11-12T01:47:28;39.88;;;37.10;;
47239;SDS011;32978;53.586;10.052;2022-11-12T01:52:29;38.47;;;35.78;;
47239;SDS011;32978;53.586;10.052;2022-11-12T01:57:26;35.90;;;33.42;;
47239;SDS011;32978;53.586;10.052;2022-11-12T02:02:30;35.67;;;32.97;;
47239;SDS011;32978;53.586;10.052;2022-11-12T02:07:26;32.83;;;30.27;;
47239;SDS011;32978;53.586;10.052;2022-11-12T02:12:23;34.35;;;31.23;;
47239;SDS011;32978;53.586;10.052;2022-11-12T02:17:37;31.80;;;29.10;;
47239;SDS011;32978;53.586;10.052;2022-11-12T02:22:34;30.95;;;28.25;;
47239;SDS011;32978;53.586;10.052;2022-11-12T02:27:30;29.02;;;26.60;;
47239;SDS011;32978;53.586;10.052;2022-11-12T02:32:26;28.55;;;26.25;;
47239;SDS011;32978;53.586;10.052;2022-11-12T02:37:22;26.88;;;24.45;;
47239;SDS011;32978;53.586;10.052;2022-11-12T02:42:19;28.77;;;26.38;;
47239;SDS011;32978;53.586;10.052;2022-11-12T02:47:15;30.48;;;28.00;;
47239;SDS011;32978;53.586;10.052;2022-11-12T02:52:11;33.38;;;30.40;;
47239;SDS011;32978;53.586;10.052;2022-11-12T02:57:08;36.03;;;32.78;;
47239;SDS011;32978;53.586;10.052;2022-11-12T03:02:04;33.85;;;30.92;;
47239;SDS011;32978;53.586;10.052;2022-11-12T03:07:00;36.72;;;33.92;;
47239;SDS011;32978;53.586;10.052;2022-11-12T03:11:56;38.28;;;35.28;;
47239;SDS011;32978;53.586;10.052;2022-11-12T03:16:53;39.65;;;36.22;;
47239;SDS011;32978;53.586;10.052;2022-11-12T03:21:49;42.38;;;39.10;;
47239;SDS011;32978;53.586;10.052;2022-11-12T03:26:45;42.08;;;39.05;;
47239;SDS011;32978;53.586;10.052;2022-11-12T03:31:41;46.15;;;42.58;;
47239;SDS011;32978;53.586;10.052;2022-11-12T03:36:38;46.88;;;43.55;;
47239;SDS011;32978;53.586;10.052;2022-11-12T03:41:34;51.90;;;48.60;;
47239;SDS011;32978;53.586;10.052;2022-11-12T03:46:30;54.35;;;50.60;;
47239;SDS011;32978;53.586;10.052;2022-11-12T03:51:27;59.88;;;56.00;;
47239;SDS011;32978;53.586;10.052;2022-11-12T03:56:23;63.58;;;59.50;;
47239;SDS011;32978;53.586;10.052;2022-11-12T04:01:24;67.03;;;62.72;;
47239;SDS011;32978;53.586;10.052;2022-11-12T04:06:20;63.13;;;59.03;;
47239;SDS011;32978;53.586;10.052;2022-11-12T04:11:35;70.57;;;66.05;;
47239;SDS011;32978;53.586;10.052;2022-11-12T04:16:31;68.53;;;64.35;;
47239;SDS011;32978;53.586;10.052;2022-11-12T04:21:47;71.35;;;66.95;;
47239;SDS011;32978;53.586;10.052;2022-11-12T04:26:46;73.22;;;68.80;;
47239;SDS011;32978;53.586;10.052;2022-11-12T04:31:43;79.68;;;74.72;;
47239;SDS011;32978;53.586;10.052;2022-11-12T04:36:39;73.50;;;68.72;;
47239;SDS011;32978;53.586;10.052;2022-11-12T04:41:35;80.93;;;76.03;;
47239;SDS011;32978;53.586;10.052;2022-11-12T04:46:50;76.70;;;72.07;;
47239;SDS011;32978;53.586;10.052;2022-11-12T04:51:46;80.03;;;74.82;;
47239;SDS011;32978;53.586;10.052;2022-11-12T04:57:00;82.00;;;76.93;;
47239;SDS011;32978;53.586;10.052;2022-11-12T05:01:57;87.93;;;82.45;;
47239;SDS011;32978;53.586;10.052;2022-11-12T05:06:56;80.15;;;75.07;;
47239;SDS011;32978;53.586;10.052;2022-11-12T05:11:52;82.53;;;77.45;;
47239;SDS011;32978;53.586;10.052;2022-11-12T05:16:50;80.13;;;75.13;;
47239;SDS011;32978;53.586;10.052;2022-11-12T05:21:46;85.43;;;80.18;;
47239;SDS011;32978;53.586;10.052;2022-11-12T05:27:02;77.10;;;72.22;;
47239;SDS011;32978;53.586;10.052;2022-11-12T05:31:59;83.40;;;78.18;;
47239;SDS011;32978;53.586;10.052;2022-11-12T05:36:55;87.63;;;82.43;;
47239;SDS011;32978;53.586;10.052;2022-11-12T05:41:52;86.75;;;81.07;;
47239;SDS011;32978;53.586;10.052;2022-11-12T05:47:07;85.60;;;80.47;;
47239;SDS011;32978;53.586;10.052;2022-11-12T05:52:04;88.47;;;83.28;;
47239;SDS011;32978;53.586;10.052;2022-11-12T05:57:00;80.38;;;75.40;;
47239;SDS011;32978;53.586;10.052;2022-11-12T06:01:56;80.63;;;75.65;;
47239;SDS011;32978;53.586;10.052;2022-11-12T06:06:53;85.80;;;80.55;;
47239;SDS011;32978;53.586;10.052;2022-11-12T06:11:49;85.57;;;80.60;;
47239;SDS011;32978;53.586;10.052;2022-11-12T06:16:45;84.35;;;79.07;;
47239;SDS011;32978;53.586;10.052;2022-11-12T06:21:42;86.75;;;81.25;;
47239;SDS011;32978;53.586;10.052;2022-11-12T06:26:39;86.80;;;81.32;;
47239;SDS011;32978;53.586;10.052;2022-11-12T06:31:35;83.22;;;78.35;;
47239;SDS011;32978;53.586;10.052;2022-11-12T06:36:32;85.22;;;79.95;;
47239;SDS011;32978;53.586;10.052;2022-11-12T06:41:28;89.82;;;84.05;;
47239;SDS011;32978;53.586;10.052;2022-11-12T06:46:24;90.55;;;85.10;;
47239;SDS011;32978;53.586;10.052;2022-11-12T06:51:21;89.50;;;84.05;;
47239;SDS011;32978;53.586;10.052;2022-11-12T06:56:17;94.60;;;89.10;;
47239;SDS011;32978;53.586;10.052;2022-11-12T07:01:14;103.18;;;97.15;;
47239;SDS011;32978;53.586;10.052;2022-11-12T07:06:12;98.70;;;92.88;;
47239;SDS011;32978;53.586;10.052;2022-11-12T07:11:09;101.15;;;95.00;;
47239;SDS011;32978;53.586;10.052;2022-11-12T07:16:05;101.28;;;95.28;;
47239;SDS011;32978;53.586;10.052;2022-11-12T07:21:03;92.57;;;86.97;;
47239;SDS011;32978;53.586;10.052;2022-11-12T07:26:02;94.57;;;88.82;;
47239;SDS011;32978;53.586;10.052;2022-11-12T07:31:00;96.70;;;90.93;;
47239;SDS011;32978;53.586;10.052;2022-11-12T07:35:57;90.75;;;85.35;;
47239;SDS011;32978;53.586;10.052;2022-11-12T07:51:11;93.85;;;88.18;;
47239;SDS011;32978;53.586;10.052;2022-11-12T07:56:09;97.13;;;91.15;;
47239;SDS011;32978;53.586;10.052;2022-11-12T08:01:18;97.47;;;91.57;;
47239;SDS011;32978;53.586;10.052;2022-11-12T08:06:17;92.72;;;87.15;;
47239;SDS011;32978;53.586;10.052;2022-11-12T08:11:13;90.43;;;84.80;;
47239;SDS011;32978;53.586;10.052;2022-11-12T08:16:10;93.75;;;88.22;;
47239;SDS011;32978;53.586;10.052;2022-11-12T08:21:07;97.47;;;91.70;;
47239;SDS011;32978;53.586;10.052;2022-11-12T08:26:05;99.07;;;93.32;;
47239;SDS011;32978;53.586;10.052;2022-11-12T08:31:03;103.00;;;97.18;;
47239;SDS011;32978;53.586;10.052;2022-11-12T08:36:03;102.78;;;96.75;;
47239;SDS011;32978;53.586;10.052;2022-11-12T08:41:00;97.72;;;92.13;;
47239;SDS011;32978;53.586;10.052;2022-11-12T08:45:59;102.28;;;96.15;;
47239;SDS011;32978;53.586;10.052;2022-11-12T08:50:55;97.25;;;91.53;;
47239;SDS011;32978;53.586;10.052;2022-11-12T08:55:52;90.43;;;85.32;;
47239;SDS011;32978;53.586;10.052;2022-11-12T09:00:49;89.68;;;84.55;;
47239;SDS011;32978;53.586;10.052;2022-11-12T09:05:46;83.97;;;79.18;;
47239;SDS011;32978;53.586;10.052;2022-11-12T09:10:43;79.32;;;74.40;;
47239;SDS011;32978;53.586;10.052;2022-11-12T09:15:39;72.97;;;68.25;;
47239;SDS011;32978;53.586;10.052;2022-11-12T09:20:36;62.13;;;58.03;;
47239;SDS011;32978;53.586;10.052;2022-11-12T09:25:33;51.00;;;47.58;;
47239;SDS011;32978;53.586;10.052;2022-11-12T09:30:29;45.90;;;42.95;;
47239;SDS011;32978;53.586;10.052;2022-11-12T09:35:25;47.22;;;43.72;;
47239;SDS011;32978;53.586;10.052;2022-11-12T09:40:22;47.53;;;44.00;;
47239;SDS011;32978;53.586;10.052;2022-11-12T09:45:25;44.00;;;40.60;;
47239;SDS011;32978;53.586;10.052;2022-11-12T09:50:24;43.28;;;40.15;;
47239;SDS011;32978;53.586;10.052;2022-11-12T09:55:28;43.75;;;40.65;;
47239;SDS011;32978;53.586;10.052;2022-11-12T10:00:25;42.50;;;39.28;;
47239;SDS011;32978;53.586;10.052;2022-11-12T10:05:25;41.88;;;38.88;;
47239;SDS011;32978;53.586;10.052;2022-11-12T10:21:00;36.90;;;33.75;;
47239;SDS011;32978;53.586;10.052;2022-11-12T10:25:59;35.33;;;32.42;;
47239;SDS011;32978;53.586;10.052;2022-11-12T10:31:01;32.67;;;29.88;;
47239;SDS011;32978;53.586;10.052;2022-11-12T10:36:47;30.33;;;27.98;;
47239;SDS011;32978;53.586;10.052;2022-11-12T10:41:18;29.98;;;27.33;;
47239;SDS011;32978;53.586;10.052;2022-11-12T10:46:19;27.45;;;25.05;;
47239;SDS011;32978;53.586;10.052;2022-11-12T10:51:35;30.23;;;27.35;;
47239;SDS011;32978;53.586;10.052;2022-11-12T10:56:31;26.42;;;24.20;;
47239;SDS011;32978;53.586;10.052;2022-11-12T11:01:28;26.45;;;24.15;;
47239;SDS011;32978;53.586;10.052;2022-11-12T11:06:31;25.58;;;23.40;;
47239;SDS011;32978;53.586;10.052;2022-11-12T11:11:28;23.10;;;21.00;;
47239;SDS011;32978;53.586;10.052;2022-11-12T11:16:26;22.65;;;20.42;;
47239;SDS011;32978;53.586;10.052;2022-11-12T11:26:39;21.33;;;19.25;;
47239;SDS011;32978;53.586;10.052;2022-11-12T11:31:39;19.48;;;17.67;;
47239;SDS011;32978;53.586;10.052;2022-11-12T11:36:49;18.50;;;16.70;;
47239;SDS011;32978;53.586;10.052;2022-11-12T11:41:51;19.30;;;17.42;;
47239;SDS011;32978;53.586;10.052;2022-11-12T11:57:02;18.05;;;16.40;;
47239;SDS011;32978;53.586;10.052;2022-11-12T12:17:15;20.27;;;17.05;;
47239;SDS011;32978;53.586;10.052;2022-11-12T12:22:15;19.40;;;17.35;;
47239;SDS011;32978;53.586;10.052;2022-11-12T12:27:20;19.58;;;17.48;;
47239;SDS011;32978;53.586;10.052;2022-11-12T12:42:18;19.92;;;17.77;;
47239;SDS011;32978;53.586;10.052;2022-11-12T12:47:16;19.23;;;17.20;;
47239;SDS011;32978;53.586;10.052;2022-11-12T12:52:14;21.20;;;19.02;;
47239;SDS011;32978;53.586;10.052;2022-11-12T13:02:26;20.15;;;18.25;;
47239;SDS011;32978;53.586;10.052;2022-11-12T13:07:38;20.05;;;18.30;;
47239;SDS011;32978;53.586;10.052;2022-11-12T13:17:50;21.42;;;19.73;;
47239;SDS011;32978;53.586;10.052;2022-11-12T13:22:48;22.27;;;20.17;;
47239;SDS011;32978;53.586;10.052;2022-11-12T13:37:44;23.00;;;20.92;;
47239;SDS011;32978;53.586;10.052;2022-11-12T13:42:41;24.27;;;22.23;;
47239;SDS011;32978;53.586;10.052;2022-11-12T13:47:44;24.52;;;22.40;;
47239;SDS011;32978;53.586;10.052;2022-11-12T13:52:40;25.05;;;22.98;;
47239;SDS011;32978;53.586;10.052;2022-11-12T13:57:37;26.25;;;24.15;;
47239;SDS011;32978;53.586;10.052;2022-11-12T14:02:33;26.70;;;24.52;;
47239;SDS011;32978;53.586;10.052;2022-11-12T14:07:42;24.73;;;22.60;;
47239;SDS011;32978;53.586;10.052;2022-11-12T14:13:05;23.58;;;21.60;;
47239;SDS011;32978;53.586;10.052;2022-11-12T14:18:09;23.08;;;21.15;;
47239;SDS011;32978;53.586;10.052;2022-11-12T14:23:09;25.02;;;22.63;;
47239;SDS011;32978;53.586;10.052;2022-11-12T14:28:21;24.60;;;22.52;;
47239;SDS011;32978;53.586;10.052;2022-11-12T14:38:24;24.25;;;22.15;;
47239;SDS011;32978;53.586;10.052;2022-11-12T14:43:28;25.05;;;22.67;;
47239;SDS011;32978;53.586;10.052;2022-11-12T14:48:26;25.45;;;23.15;;
47239;SDS011;32978;53.586;10.052;2022-11-12T14:53:27;26.02;;;23.65;;
47239;SDS011;32978;53.586;10.052;2022-11-12T14:58:25;28.85;;;26.10;;
47239;SDS011;32978;53.586;10.052;2022-11-12T15:03:25;27.23;;;24.90;;
47239;SDS011;32978;53.586;10.052;2022-11-12T15:08:29;30.15;;;27.40;;
47239;SDS011;32978;53.586;10.052;2022-11-12T15:13:26;29.20;;;26.40;;
47239;SDS011;32978;53.586;10.052;2022-11-12T15:18:24;29.75;;;27.35;;
47239;SDS011;32978;53.586;10.052;2022-11-12T15:23:20;30.52;;;27.77;;
47239;SDS011;32978;53.586;10.052;2022-11-12T15:28:21;32.70;;;29.88;;
47239;SDS011;32978;53.586;10.052;2022-11-12T15:33:20;34.22;;;31.20;;
47239;SDS011;32978;53.586;10.052;2022-11-12T15:38:27;34.55;;;31.65;;
47239;SDS011;32978;53.586;10.052;2022-11-12T15:43:34;36.92;;;33.70;;
47239;SDS011;32978;53.586;10.052;2022-11-12T15:48:30;40.65;;;37.10;;
47239;SDS011;32978;53.586;10.052;2022-11-12T15:53:27;40.85;;;37.42;;
47239;SDS011;32978;53.586;10.052;2022-11-12T15:58:27;44.72;;;40.72;;
47239;SDS011;32978;53.586;10.052;2022-11-12T16:03:24;45.20;;;41.63;;
47239;SDS011;32978;53.586;10.052;2022-11-12T16:08:21;47.67;;;43.80;;
47239;SDS011;32978;53.586;10.052;2022-11-12T16:18:14;51.90;;;47.85;;
47239;SDS011;32978;53.586;10.052;2022-11-12T16:23:10;50.53;;;46.63;;
47239;SDS011;32978;53.586;10.052;2022-11-12T16:28:16;52.33;;;48.53;;
47239;SDS011;32978;53.586;10.052;2022-11-12T16:33:12;54.17;;;50.10;;
47239;SDS011;32978;53.586;10.052;2022-11-12T16:38:12;56.70;;;51.95;;
47239;SDS011;32978;53.586;10.052;2022-11-12T16:43:09;56.13;;;51.60;;
47239;SDS011;32978;53.586;10.052;2022-11-12T16:53:08;58.40;;;53.95;;
47239;SDS011;32978;53.586;10.052;2022-11-12T16:58:04;58.45;;;54.03;;
47239;SDS011;32978;53.586;10.052;2022-11-12T17:03:00;63.63;;;58.45;;
47239;SDS011;32978;53.586;10.052;2022-11-12T17:07:57;62.85;;;58.13;;
47239;SDS011;32978;53.586;10.052;2022-11-12T17:12:53;65.85;;;61.15;;
47239;SDS011;32978;53.586;10.052;2022-11-12T17:17:51;69.75;;;64.78;;
47239;SDS011;32978;53.586;10.052;2022-11-12T17:22:48;68.90;;;63.95;;
47239;SDS011;32978;53.586;10.052;2022-11-12T17:27:44;70.57;;;65.47;;
47239;SDS011;32978;53.586;10.052;2022-11-12T17:32:40;71.32;;;66.15;;
47239;SDS011;32978;53.586;10.052;2022-11-12T17:37:36;71.43;;;66.60;;
47239;SDS011;32978;53.586;10.052;2022-11-12T17:42:33;76.70;;;71.75;;
47239;SDS011;32978;53.586;10.052;2022-11-12T17:47:29;74.22;;;69.50;;
47239;SDS011;32978;53.586;10.052;2022-11-12T17:52:25;79.05;;;73.82;;
47239;SDS011;32978;53.586;10.052;2022-11-12T17:57:21;85.03;;;79.63;;
47239;SDS011;32978;53.586;10.052;2022-11-12T18:02:17;87.90;;;82.53;;
47239;SDS011;32978;53.586;10.052;2022-11-12T18:07:14;84.45;;;79.18;;
47239;SDS011;32978;53.586;10.052;2022-11-12T18:12:10;92.57;;;87.10;;
47239;SDS011;32978;53.586;10.052;2022-11-12T18:17:06;90.75;;;85.20;;
47239;SDS011;32978;53.586;10.052;2022-11-12T18:22:03;91.10;;;84.95;;
47239;SDS011;32978;53.586;10.052;2022-11-12T18:26:59;91.50;;;85.65;;
47239;SDS011;32978;53.586;10.052;2022-11-12T18:31:55;87.68;;;82.43;;
47239;SDS011;32978;53.586;10.052;2022-11-12T18:36:51;95.22;;;89.47;;
47239;SDS011;32978;53.586;10.052;2022-11-12T18:41:48;91.07;;;85.68;;
47239;SDS011;32978;53.586;10.052;2022-11-12T18:46:44;95.55;;;89.45;;
47239;SDS011;32978;53.586;10.052;2022-11-12T18:51:40;94.85;;;89.25;;
47239;SDS011;32978;53.586;10.052;2022-11-12T18:56:36;94.22;;;88.18;;
47239;SDS011;32978;53.586;10.052;2022-11-12T19:01:34;94.30;;;88.53;;
47239;SDS011;32978;53.586;10.052;2022-11-12T19:06:31;96.57;;;90.35;;
47239;SDS011;32978;53.586;10.052;2022-11-12T19:11:27;96.65;;;90.40;;
47239;SDS011;32978;53.586;10.052;2022-11-12T19:16:23;99.80;;;93.18;;
47239;SDS011;32978;53.586;10.052;2022-11-12T19:21:21;96.80;;;90.88;;
47239;SDS011;32978;53.586;10.052;2022-11-12T19:26:17;100.75;;;94.70;;
47239;SDS011;32978;53.586;10.052;2022-11-12T19:31:15;98.35;;;92.47;;
47239;SDS011;32978;53.586;10.052;2022-11-12T19:36:12;105.72;;;99.43;;
47239;SDS011;32978;53.586;10.052;2022-11-12T19:41:15;102.25;;;96.20;;
47239;SDS011;32978;53.586;10.052;2022-11-12T19:46:15;105.45;;;98.65;;
47239;SDS011;32978;53.586;10.052;2022-11-12T19:51:12;109.00;;;102.32;;
47239;SDS011;32978;53.586;10.052;2022-11-12T19:56:09;112.35;;;105.57;;
47239;SDS011;32978;53.586;10.052;2022-11-12T20:01:06;113.25;;;106.55;;
47239;SDS011;32978;53.586;10.052;2022-11-12T20:06:03;115.20;;;108.30;;
47239;SDS011;32978;53.586;10.052;2022-11-12T20:11:00;108.90;;;102.40;;
47239;SDS011;32978;53.586;10.052;2022-11-12T20:15:56;109.40;;;102.85;;
47239;SDS011;32978;53.586;10.052;2022-11-12T20:20:54;110.10;;;103.63;;
47239;SDS011;32978;53.586;10.052;2022-11-12T20:25:51;108.95;;;102.40;;
47239;SDS011;32978;53.586;10.052;2022-11-12T20:30:47;114.47;;;107.68;;
47239;SDS011;32978;53.586;10.052;2022-11-12T20:35:44;114.75;;;108.03;;
47239;SDS011;32978;53.586;10.052;2022-11-12T20:40:40;115.60;;;109.03;;
47239;SDS011;32978;53.586;10.052;2022-11-12T20:45:36;115.10;;;108.07;;
47239;SDS011;32978;53.586;10.052;2022-11-12T20:50:32;116.20;;;108.80;;
47239;SDS011;32978;53.586;10.052;2022-11-12T20:55:29;112.30;;;105.75;;
47239;SDS011;32978;53.586;10.052;2022-11-12T21:00:27;116.30;;;109.30;;
47239;SDS011;32978;53.586;10.052;2022-11-12T21:05:23;114.03;;;106.72;;
47239;SDS011;32978;53.586;10.052;2022-11-12T21:10:19;120.97;;;113.75;;
47239;SDS011;32978;53.586;10.052;2022-11-12T21:15:16;119.35;;;112.30;;
47239;SDS011;32978;53.586;10.052;2022-11-12T21:20:12;122.72;;;115.47;;
47239;SDS011;32978;53.586;10.052;2022-11-12T21:25:09;128.05;;;120.50;;
47239;SDS011;32978;53.586;10.052;2022-11-12T21:30:05;124.72;;;117.57;;
47239;SDS011;32978;53.586;10.052;2022-11-12T21:35:01;127.15;;;119.65;;
47239;SDS011;32978;53.586;10.052;2022-11-12T21:39:58;125.82;;;118.45;;
47239;SDS011;32978;53.586;10.052;2022-11-12T21:44:54;129.27;;;121.57;;
47239;SDS011;32978;53.586;10.052;2022-11-12T21:49:50;130.93;;;123.25;;
47239;SDS011;32978;53.586;10.052;2022-11-12T21:54:46;131.23;;;123.32;;
47239;SDS011;32978;53.586;10.052;2022-11-12T21:59:43;125.20;;;117.78;;
47239;SDS011;32978;53.586;10.052;2022-11-12T22:04:39;128.00;;;120.55;;
47239;SDS011;32978;53.586;10.052;2022-11-12T22:09:35;126.63;;;118.88;;
47239;SDS011;32978;53.586;10.052;2022-11-12T22:14:31;127.93;;;120.53;;
47239;SDS011;32978;53.586;10.052;2022-11-12T22:19:27;127.85;;;120.32;;
47239;SDS011;32978;53.586;10.052;2022-11-12T22:24:24;126.07;;;118.60;;
47239;SDS011;32978;53.586;10.052;2022-11-12T22:29:20;126.72;;;119.28;;
47239;SDS011;32978;53.586;10.052;2022-11-12T22:34:16;130.13;;;122.40;;
47239;SDS011;32978;53.586;10.052;2022-11-12T22:39:12;126.75;;;119.20;;
47239;SDS011;32978;53.586;10.052;2022-11-12T22:44:08;131.02;;;123.35;;
47239;SDS011;32978;53.586;10.052;2022-11-12T22:49:05;128.02;;;120.72;;
47239;SDS011;32978;53.586;10.052;2022-11-12T22:54:04;131.10;;;123.70;;
47239;SDS011;32978;53.586;10.052;2022-11-12T22:59:01;128.35;;;120.93;;
47239;SDS011;32978;53.586;10.052;2022-11-12T23:04:00;128.02;;;120.50;;
47239;SDS011;32978;53.586;10.052;2022-11-12T23:08:57;126.03;;;118.93;;
47239;SDS011;32978;53.586;10.052;2022-11-12T23:13:54;128.15;;;120.80;;
47239;SDS011;32978;53.586;10.052;2022-11-12T23:18:51;126.72;;;119.53;;
47239;SDS011;32978;53.586;10.052;2022-11-12T23:23:48;125.22;;;117.97;;
47239;SDS011;32978;53.586;10.052;2022-11-12T23:28:44;127.60;;;120.00;;
47239;SDS011;32978;53.586;10.052;2022-11-12T23:33:44;130.88;;;123.38;;
47239;SDS011;32978;53.586;10.052;2022-11-12T23:38:40;129.35;;;121.82;;
47239;SDS011;32978;53.586;10.052;2022-11-12T23:43:37;132.07;;;124.68;;
47239;SDS011;32978;53.586;10.052;2022-11-12T23:48:33;131.13;;;123.57;;
47239;SDS011;32978;53.586;10.052;2022-11-12T23:53:29;125.30;;;118.10;;
47239;SDS011;32978;53.586;10.052;2022-11-12T23:58:27;126.15;;;119.05;;
